Time;durP1;ratioP1;P1;durP2;ratioP2;P2;SDS_P1;SDS_P2;PMS_P1;PMS_P2;Temp;Humidity;BMP_temperature;BMP_pressure;BME280_temperature;BME280_humidity;BME280_pressure;Samples;Min_cycle;Max_cycle;Signal;HPM_P1;HPM_P2
2022/07/18 00:02:17;;;;;;;3.25;2.10;;;;;;;26.46;29.39;100126.22;5094222;28;20051;-43
2022/07/18 00:04:42;;;;;;;3.38;2.20;;;;;;;26.36;29.36;100131.09;5093820;28;20081;-42
2022/07/18 00:07:10;;;;;;;2.13;1.92;;;;;;;26.20;29.06;100125.06;5093849;28;20031;-41
2022/07/18 00:09:36;;;;;;;2.60;2.28;;;;;;;26.39;28.77;100131.28;5093687;28;20491;-41
2022/07/18 00:12:03;;;;;;;4.43;2.20;;;;;;;26.56;28.30;100127.16;5093575;28;20103;-41
2022/07/18 00:14:28;;;;;;;4.47;2.10;;;;;;;26.19;28.66;100137.09;5093665;28;20509;-40
2022/07/18 00:16:54;;;;;;;3.75;2.00;;;;;;;25.98;28.58;100142.06;5094003;28;20054;-41
2022/07/18 00:19:19;;;;;;;5.22;2.00;;;;;;;26.01;28.44;100141.44;5093188;28;20016;-41
2022/07/18 00:21:45;;;;;;;3.78;2.00;;;;;;;26.16;28.15;100143.13;5093774;28;20091;-42
2022/07/18 00:24:10;;;;;;;4.50;2.13;;;;;;;26.12;28.18;100140.19;5093169;28;20597;-41
2022/07/18 00:26:36;;;;;;;4.57;1.90;;;;;;;26.42;27.66;100144.31;5093662;28;20391;-41
2022/07/18 00:29:02;;;;;;;2.70;2.10;;;;;;;26.17;28.24;100147.50;5093253;28;20028;-41
2022/07/18 00:31:28;;;;;;;2.80;1.90;;;;;;;26.03;28.35;100147.44;5093411;28;20024;-41
2022/07/18 00:33:53;;;;;;;3.40;1.65;;;;;;;25.91;28.42;100145.13;5093081;28;20035;-42
2022/07/18 00:36:19;;;;;;;4.53;2.13;;;;;;;25.83;28.00;100140.34;5093475;28;20020;-41
2022/07/18 00:38:44;;;;;;;2.65;1.90;;;;;;;25.84;27.81;100139.25;5092809;28;20495;-42
2022/07/18 00:41:14;;;;;;;2.25;2.05;;;;;;;26.05;27.08;100142.50;5092007;28;20509;-42
2022/07/18 00:43:39;;;;;;;3.25;1.73;;;;;;;25.64;27.28;100132.97;5092860;28;20111;-41
2022/07/18 00:46:05;;;;;;;2.78;1.55;;;;;;;25.58;27.18;100142.34;5093287;28;20103;-42
2022/07/18 00:48:30;;;;;;;2.40;1.80;;;;;;;25.62;27.07;100146.09;5093169;28;20055;-41
2022/07/18 00:50:56;;;;;;;2.55;1.77;;;;;;;25.67;27.09;100148.75;5092161;28;20047;-42
2022/07/18 00:53:23;;;;;;;3.92;1.90;;;;;;;25.63;26.71;100146.94;5092133;28;20471;-43
2022/07/18 00:55:49;;;;;;;5.63;1.83;;;;;;;25.66;26.38;100143.59;5092208;28;20044;-42
2022/07/18 00:58:15;;;;;;;1.90;1.50;;;;;;;25.55;26.62;100156.53;5092221;28;20059;-42
2022/07/18 01:03:25;;;;;;;2.70;1.80;;;;;;;25.44;26.39;100149.63;5091537;28;20472;-42
2022/07/18 01:05:50;;;;;;;5.40;1.70;;;;;;;25.33;26.72;100151.66;5092398;28;20032;-42
2022/07/18 01:08:16;;;;;;;2.22;1.73;;;;;;;25.23;27.01;100160.78;5092523;28;20022;-44
2022/07/18 01:10:41;;;;;;;3.42;1.70;;;;;;;25.18;26.48;100152.63;5092500;28;20016;-42
2022/07/18 01:13:07;;;;;;;1.98;1.73;;;;;;;25.39;26.30;100158.66;5092067;28;20020;-41
2022/07/18 01:15:32;;;;;;;3.15;1.80;;;;;;;25.58;26.00;100155.97;5092165;28;20445;-43
2022/07/18 01:17:58;;;;;;;2.33;1.60;;;;;;;25.45;25.89;100159.41;5092350;28;20023;-42
2022/07/18 01:20:27;;;;;;;2.05;1.73;;;;;;;24.98;26.43;100154.50;5092223;28;20051;-42
2022/07/18 01:22:53;;;;;;;2.25;1.55;;;;;;;25.00;26.65;100162.38;5091939;28;20082;-44
2022/07/18 01:25:18;;;;;;;4.20;1.60;;;;;;;25.08;26.43;100153.56;5091946;28;20476;-43
2022/07/18 01:27:44;;;;;;;3.17;1.40;;;;;;;24.96;26.70;100156.72;5092047;28;20028;-43
2022/07/18 01:30:09;;;;;;;2.00;1.50;;;;;;;24.82;26.79;100144.88;5092205;28;20019;-42
2022/07/18 01:32:35;;;;;;;3.33;1.80;;;;;;;24.85;26.69;100155.19;5091952;28;20020;-43
2022/07/18 01:35:00;;;;;;;2.38;1.75;;;;;;;24.71;27.36;100156.97;5091928;28;20077;-42
2022/07/18 01:37:26;;;;;;;4.05;1.92;;;;;;;24.66;27.30;100157.84;5091974;28;20099;-42
2022/07/18 01:39:51;;;;;;;3.17;1.80;;;;;;;24.71;27.06;100165.13;5091983;28;20486;-43
2022/07/18 01:42:17;;;;;;;3.28;1.63;;;;;;;24.63;27.03;100157.59;5091494;28;20498;-43
2022/07/18 01:44:43;;;;;;;1.63;1.40;;;;;;;24.75;27.01;100164.28;5080330;28;20028;-43
2022/07/18 01:47:11;;;;;;;4.63;1.90;;;;;;;24.78;26.98;100160.97;5071504;28;20028;-42
2022/07/18 01:49:37;;;;;;;4.63;1.70;;;;;;;24.83;27.05;100157.41;5071272;28;20028;-43
2022/07/18 01:52:03;;;;;;;2.13;1.58;;;;;;;24.86;27.07;100164.97;5071015;28;20028;-43
2022/07/18 01:54:32;;;;;;;2.80;1.90;;;;;;;24.89;27.32;100164.41;5070818;28;20225;-42
2022/07/18 01:56:59;;;;;;;;;;;;;;;24.82;27.41;100165.84;5071989;28;20021;-42
2022/07/18 01:59:24;;;;;;;2.53;1.73;;;;;;;24.98;27.28;100157.22;5082137;28;19908;-42
2022/07/18 02:01:50;;;;;;;4.65;1.52;;;;;;;24.56;28.10;100163.38;5091481;28;20028;-42
2022/07/18 02:04:15;;;;;;;3.15;1.80;;;;;;;24.43;28.27;100153.94;5091349;28;20032;-42
2022/07/18 02:06:41;;;;;;;2.67;1.88;;;;;;;24.35;28.31;100162.69;5091477;28;20024;-42
2022/07/18 02:09:08;;;;;;;3.25;1.90;;;;;;;24.25;28.63;100165.53;5091287;28;20042;-43
2022/07/18 02:11:35;;;;;;;3.47;1.70;;;;;;;24.33;28.25;100159.47;5091359;28;20021;-42
2022/07/18 02:14:00;;;;;;;3.85;1.80;;;;;;;24.50;28.39;100169.91;5091340;28;20400;-43
2022/07/18 02:16:26;;;;;;;2.15;1.70;;;;;;;24.45;28.54;100170.78;5091361;28;20475;-42
2022/07/18 02:18:51;;;;;;;5.95;1.70;;;;;;;24.44;28.51;100171.88;5091035;28;20027;-42
2022/07/18 02:21:17;;;;;;;3.17;1.85;;;;;;;24.52;28.42;100174.03;5090443;28;20028;-43
2022/07/18 02:23:43;;;;;;;4.35;1.95;;;;;;;24.48;28.49;100161.25;5090802;28;20040;-44
2022/07/18 02:26:10;;;;;;;3.85;2.00;;;;;;;24.59;28.44;100176.41;5090323;28;20531;-43
2022/07/18 02:28:35;;;;;;;3.10;1.83;;;;;;;24.29;29.35;100178.25;5091412;28;20035;-41
2022/07/18 02:31:01;;;;;;;2.50;1.90;;;;;;;24.17;29.86;100175.91;5091216;28;20099;-41
2022/07/18 02:33:27;;;;;;;2.50;1.90;;;;;;;23.90;30.32;100187.25;5090623;28;20107;-43
2022/07/18 02:35:52;;;;;;;2.65;1.80;;;;;;;24.08;30.17;100184.94;5091351;28;20085;-42
2022/07/18 02:38:18;;;;;;;4.03;1.80;;;;;;;24.06;30.22;100189.84;5090581;28;20016;-42
2022/07/18 02:40:43;;;;;;;3.50;1.90;;;;;;;24.09;30.01;100192.81;5091025;28;20115;-41
2022/07/18 02:43:08;;;;;;;4.22;2.00;;;;;;;24.10;29.98;100193.63;5090797;28;20569;-41
2022/07/18 02:45:34;;;;;;;3.05;1.73;;;;;;;24.19;29.81;100198.19;5090935;28;20452;-41
2022/07/18 02:48:00;;;;;;;4.20;2.15;;;;;;;24.21;30.02;100192.47;5090769;28;20028;-39
2022/07/18 02:50:26;;;;;;;5.28;2.00;;;;;;;23.99;30.35;100199.16;5090359;28;20048;-40
2022/07/18 02:52:51;;;;;;;3.72;1.88;;;;;;;24.24;29.98;100201.94;5090188;28;20055;-41
2022/07/18 02:55:17;;;;;;;2.40;2.00;;;;;;;23.76;30.59;100194.34;5090990;28;20024;-41
2022/07/18 02:57:42;;;;;;;2.30;2.10;;;;;;;23.56;30.90;100196.09;5090284;28;20024;-42
2022/07/18 03:00:10;;;;;;;3.13;1.90;;;;;;;23.65;30.63;100206.38;5086963;28;20107;-42
2022/07/18 03:02:36;;;;;;;3.75;1.90;;;;;;;23.55;30.86;100196.34;5072288;28;20043;-41
2022/07/18 03:05:02;;;;;;;3.08;1.95;;;;;;;23.66;30.74;100189.78;5068853;28;20055;-41
2022/07/18 03:07:28;;;;;;;5.18;3.08;;;;;;;23.78;30.29;100201.19;5070276;28;20028;-41
2022/07/18 03:09:53;;;;;;;13.35;7.53;;;;;;;23.96;29.68;100188.03;5069962;28;20024;-42
2022/07/18 03:12:19;;;;;;;7.10;3.10;;;;;;;23.99;29.83;100195.63;5070132;28;20043;-37
2022/07/18 03:14:44;;;;;;;6.13;3.90;;;;;;;24.01;29.65;100193.44;5070041;28;20075;-36
2022/07/18 03:17:10;;;;;;;5.15;2.45;;;;;;;24.17;29.46;100196.84;5086957;28;20032;-37
2022/07/18 03:19:37;;;;;;;3.80;2.00;;;;;;;24.14;29.60;100197.41;5090222;28;20093;-37
2022/07/18 03:22:03;;;;;;;3.55;1.80;;;;;;;24.03;29.80;100193.13;5090313;28;20016;-36
2022/07/18 03:24:29;;;;;;;3.92;2.10;;;;;;;24.04;29.67;100194.75;5090304;28;20024;-36
2022/07/18 03:26:55;;;;;;;4.15;1.80;;;;;;;23.85;29.91;100192.69;5085580;28;20032;-36
2022/07/18 03:29:21;;;;;;;5.75;2.03;;;;;;;23.92;29.56;100190.47;5070221;28;20495;-36
2022/07/18 03:31:47;;;;;;;2.70;1.83;;;;;;;23.85;29.33;100200.84;5069990;28;20025;-36
2022/07/18 03:34:12;;;;;;;3.00;2.10;;;;;;;23.99;29.82;100195.63;5077629;28;20157;-36
2022/07/18 03:36:38;;;;;;;6.38;2.03;;;;;;;23.77;29.85;100196.78;5090279;28;20024;-36
2022/07/18 03:39:04;;;;;;;4.15;2.05;;;;;;;23.48;30.04;100198.59;5090477;28;20169;-36
2022/07/18 03:41:30;;;;;;;2.88;2.40;;;;;;;23.59;29.73;100208.31;5089963;28;20026;-37
2022/07/18 03:43:55;;;;;;;6.90;3.47;;;;;;;23.69;29.50;100205.53;5089490;28;20024;-35
2022/07/18 03:46:21;;;;;;;8.35;2.60;;;;;;;23.91;29.41;100207.91;5068472;28;20047;-37
2022/07/18 03:48:47;;;;;;;8.77;2.00;;;;;;;23.87;29.01;100206.00;5069955;28;20020;-36
2022/07/18 03:51:12;;;;;;;3.92;1.90;;;;;;;24.07;29.44;100210.53;5069486;28;20052;-37
2022/07/18 03:53:37;;;;;;;8.73;2.03;;;;;;;24.43;28.13;100183.88;5069793;28;20461;-36
2022/07/18 03:56:03;;;;;;;3.50;2.20;;;;;;;25.05;27.39;100211.31;5070096;28;20020;-36
2022/07/18 03:58:29;;;;;;;5.65;2.40;;;;;;;24.60;28.48;100210.69;5074493;28;20424;-37
2022/07/18 04:00:54;;;;;;;7.53;2.95;;;;;;;24.89;27.25;100218.03;5087495;28;20020;-36
2022/07/18 04:03:20;;;;;;;10.13;2.35;;;;;;;25.23;26.82;100222.63;5071924;28;20032;-36
2022/07/18 04:05:45;;;;;;;5.85;1.90;;;;;;;25.41;26.72;100221.84;5078486;28;20211;-36
2022/07/18 04:08:11;;;;;;;2.50;1.80;;;;;;;25.81;26.36;100225.13;5081348;28;20030;-36
2022/07/18 04:10:39;;;;;;;4.05;1.95;;;;;;;25.51;26.45;100229.06;5089748;28;20028;-37
2022/07/18 04:13:06;;;;;;;5.40;1.95;;;;;;;25.70;26.50;100213.59;5089321;28;20496;-36
2022/07/18 04:15:32;;;;;;;4.18;2.30;;;;;;;26.19;28.10;100227.91;5093140;28;20038;-37
2022/07/18 04:17:57;;;;;;;4.78;2.78;;;;;;;26.32;25.55;100223.63;5093753;28;20081;-35
2022/07/18 04:20:23;;;;;;;6.72;2.72;;;;;;;26.81;24.62;100224.19;5093162;28;20031;-36
2022/07/18 04:22:57;;;;;;;4.65;1.75;;;;;;;26.89;24.18;100223.50;5092572;28;20093;-37
2022/07/18 04:25:25;;;;;;;4.78;1.83;;;;;;;27.06;24.08;100222.91;5091440;28;20118;-36
2022/07/18 04:27:52;;;;;;;3.97;2.08;;;;;;;27.50;23.44;100225.06;5093317;28;20117;-36
2022/07/18 04:30:21;;;;;;;7.50;2.50;;;;;;;27.48;23.63;100226.47;5093548;28;20050;-37
2022/07/18 04:32:46;;;;;;;;;;;;;;;28.05;23.27;100237.84;5093394;28;20093;-36
2022/07/18 04:35:12;;;;;;;6.53;2.03;;;;;;;28.17;22.84;100234.56;5093101;28;20419;-37
2022/07/18 04:37:38;;;;;;;5.22;2.80;;;;;;;28.06;22.88;100236.72;5093170;28;20081;-37
2022/07/18 04:40:05;;;;;;;3.85;2.22;;;;;;;27.84;23.02;100242.13;5092027;28;20103;-36
2022/07/18 04:42:31;;;;;;;4.68;2.20;;;;;;;28.61;22.47;100243.09;5092033;28;20028;-36
2022/07/18 04:44:57;;;;;;;5.70;2.10;;;;;;;28.59;22.28;100251.63;5091420;28;20472;-37
2022/07/18 04:47:22;;;;;;;4.90;2.10;;;;;;;28.95;21.86;100258.13;5091812;28;20028;-37
2022/07/18 04:49:48;;;;;;;4.03;1.98;;;;;;;29.11;21.54;100264.81;5092022;28;20613;-40
2022/07/18 04:52:13;;;;;;;7.20;1.80;;;;;;;28.69;21.88;100261.50;5091825;28;20443;-37
2022/07/18 04:54:39;;;;;;;4.55;1.77;;;;;;;28.97;21.79;100270.38;5089355;28;20031;-37
2022/07/18 04:57:04;;;;;;;5.70;1.90;;;;;;;28.49;22.28;100272.97;5072043;28;20060;-36
2022/07/18 04:59:30;;;;;;;5.78;1.80;;;;;;;28.10;22.55;100269.72;5085152;28;20035;-36
2022/07/18 05:01:55;;;;;;;11.55;2.20;;;;;;;29.00;21.83;100274.44;5092455;28;20024;-37
2022/07/18 05:04:20;;;;;;;6.35;2.13;;;;;;;29.09;21.64;100279.94;5091620;28;20032;-37
2022/07/18 05:06:46;;;;;;;5.75;1.80;;;;;;;29.97;20.92;100281.91;5091509;28;20127;-36
2022/07/18 05:09:11;;;;;;;3.40;1.60;;;;;;;29.23;21.45;100292.47;5092144;28;20085;-36
2022/07/18 05:11:36;;;;;;;5.80;1.85;;;;;;;29.28;21.40;100291.50;5092195;28;20076;-36
2022/07/18 05:14:02;;;;;;;4.15;1.70;;;;;;;29.51;21.32;100286.78;5091710;28;20017;-37
2022/07/18 05:16:28;;;;;;;5.95;1.80;;;;;;;29.31;21.38;100282.66;5090321;28;20024;-37
2022/07/18 05:18:53;;;;;;;3.83;2.30;;;;;;;29.58;21.35;100283.56;5091584;28;20089;-35
2022/07/18 05:21:19;;;;;;;3.85;2.63;;;;;;;29.90;21.34;100287.84;5091567;28;20070;-36
2022/07/18 05:23:45;;;;;;;3.55;1.90;;;;;;;30.33;21.04;100289.84;5091275;28;20080;-36
2022/07/18 05:26:11;;;;;;;4.15;1.80;;;;;;;30.26;20.71;100288.69;5090709;28;20020;-36
2022/07/18 05:28:37;;;;;;;5.43;1.70;;;;;;;29.75;21.30;100296.53;5091273;28;20027;-37
2022/07/18 05:31:03;;;;;;;3.65;2.63;;;;;;;30.00;20.89;100294.97;5091250;28;20024;-37
2022/07/18 05:33:28;;;;;;;2.65;1.52;;;;;;;29.85;20.89;100290.72;5091181;28;20028;-35
2022/07/18 05:35:54;;;;;;;5.70;1.88;;;;;;;30.19;20.85;100286.44;5091482;28;20024;-36
2022/07/18 05:38:19;;;;;;;5.57;1.75;;;;;;;30.43;20.34;100294.22;5091260;28;20032;-36
2022/07/18 05:40:45;;;;;;;5.68;2.38;;;;;;;30.34;20.76;100287.91;5090937;28;20028;-36
2022/07/18 05:43:10;;;;;;;3.58;1.60;;;;;;;30.50;20.68;100283.56;5090938;28;20020;-37
2022/07/18 05:45:36;;;;;;;9.57;1.90;;;;;;;31.00;20.38;100279.44;5090380;28;20081;-36
2022/07/18 05:48:02;;;;;;;6.72;1.65;;;;;;;31.13;20.06;100283.94;5091012;28;20023;-37
2022/07/18 05:50:28;;;;;;;3.75;1.60;;;;;;;31.72;19.62;100274.94;5090224;28;20113;-36
2022/07/18 05:52:53;;;;;;;5.57;1.92;;;;;;;31.77;19.68;100271.16;5090967;28;20111;-36
2022/07/18 05:55:19;;;;;;;3.92;1.75;;;;;;;31.89;19.57;100275.94;5090564;28;20012;-37
2022/07/18 05:57:45;;;;;;;6.55;2.00;;;;;;;31.98;19.27;100273.13;5090698;28;20115;-36
2022/07/18 06:00:11;;;;;;;6.85;1.98;;;;;;;32.48;18.84;100281.34;5090522;28;20024;-35
2022/07/18 06:02:37;;;;;;;6.47;1.80;;;;;;;32.21;19.07;100268.94;5090906;28;20471;-37
2022/07/18 06:05:05;;;;;;;6.80;2.40;;;;;;;32.07;19.07;100260.94;5090698;28;20026;-37
2022/07/18 06:07:31;;;;;;;6.32;1.90;;;;;;;31.59;19.89;100259.47;5090809;28;20115;-37
2022/07/18 06:09:57;;;;;;;5.05;1.80;;;;;;;31.50;19.78;100251.28;5090858;28;20470;-37
2022/07/18 06:12:22;;;;;;;3.40;1.90;;;;;;;30.72;20.49;100260.56;5090579;28;20109;-37
2022/07/18 06:14:48;;;;;;;4.63;2.40;;;;;;;31.56;20.30;100262.88;5090446;28;20018;-37
2022/07/18 06:17:13;;;;;;;8.32;2.05;;;;;;;32.15;19.59;100265.56;5090408;28;20400;-37
2022/07/18 06:19:39;;;;;;;3.65;1.80;;;;;;;31.54;19.78;100256.91;5090847;28;20432;-36
2022/07/18 06:22:05;;;;;;;4.22;1.70;;;;;;;31.98;19.94;100262.13;5090020;28;20083;-38
2022/07/18 06:24:30;;;;;;;5.70;1.95;;;;;;;32.27;19.20;100253.00;5090201;28;20042;-38
2022/07/18 06:26:56;;;;;;;4.07;1.73;;;;;;;33.00;19.16;100260.72;5090298;28;20543;-37
2022/07/18 06:29:21;;;;;;;2.75;1.70;;;;;;;33.46;18.14;100266.16;5084659;28;20050;-37
2022/07/18 06:31:47;;;;;;;6.03;2.10;;;;;;;34.68;17.83;100263.47;5088548;28;20031;-37
2022/07/18 06:34:12;;;;;;;4.65;2.10;;;;;;;33.92;18.27;100268.78;5090202;28;20579;-37
2022/07/18 06:36:38;;;;;;;7.35;1.92;;;;;;;32.66;19.07;100256.41;5088255;28;20023;-37
2022/07/18 06:39:08;;;;;;;8.57;2.13;;;;;;;32.26;19.88;100268.72;5089408;28;20020;-37
2022/07/18 06:41:33;;;;;;;7.43;2.10;;;;;;;33.22;19.29;100269.72;5090040;28;20024;-37
2022/07/18 06:43:59;;;;;;;5.25;2.00;;;;;;;33.70;18.67;100270.91;5089177;28;20027;-37
2022/07/18 06:46:25;;;;;;;13.27;2.08;;;;;;;33.15;18.56;100269.47;5089547;28;20067;-37
2022/07/18 06:48:50;;;;;;;11.63;2.40;;;;;;;32.86;19.13;100271.25;5088968;28;20456;-37
2022/07/18 06:51:16;;;;;;;9.90;2.42;;;;;;;33.15;18.70;100269.47;5089611;28;20085;-37
2022/07/18 06:53:41;;;;;;;5.22;1.85;;;;;;;32.88;18.78;100275.28;5088298;28;20024;-37
2022/07/18 06:56:07;;;;;;;5.88;1.80;;;;;;;33.54;18.69;100278.22;5089966;28;20381;-37
2022/07/18 06:58:33;;;;;;;2.20;1.48;;;;;;;34.12;17.68;100276.09;5089587;28;20016;-38
2022/07/18 07:00:59;;;;;;;3.78;1.70;;;;;;;34.00;17.81;100270.59;5089849;28;20035;-37
2022/07/18 07:03:24;;;;;;;3.25;1.73;;;;;;;34.29;17.87;100272.25;5089366;28;20333;-38
2022/07/18 07:05:50;;;;;;;2.13;1.60;;;;;;;33.33;18.22;100276.38;5089576;28;20456;-37
2022/07/18 07:08:15;;;;;;;2.28;1.50;;;;;;;33.98;17.65;100265.41;5089883;28;20073;-37
2022/07/18 07:10:41;;;;;;;2.38;1.70;;;;;;;34.21;17.20;100278.72;5089391;28;20027;-37
2022/07/18 07:13:06;;;;;;;5.70;1.88;;;;;;;34.53;17.65;100263.03;5089497;28;20116;-36
2022/07/18 07:15:32;;;;;;;4.93;1.80;;;;;;;34.40;17.55;100269.78;5089372;28;20027;-37
2022/07/18 07:17:57;;;;;;;2.83;1.52;;;;;;;34.56;17.19;100270.63;5089809;28;20027;-37
2022/07/18 07:20:23;;;;;;;3.17;1.83;;;;;;;35.13;16.91;100274.13;5089517;28;20107;-36
2022/07/18 07:22:54;;;;;;;4.20;1.83;;;;;;;35.09;16.99;100272.41;5089647;28;20096;-37
2022/07/18 07:25:21;;;;;;;5.22;2.20;;;;;;;35.74;16.69;100259.00;5089490;28;20032;-37
2022/07/18 07:27:47;;;;;;;5.00;1.70;;;;;;;35.34;16.80;100262.81;5089718;28;20024;-36
2022/07/18 07:30:13;;;;;;;2.28;1.60;;;;;;;35.41;17.37;100262.16;5089532;28;20035;-37
2022/07/18 07:32:42;;;;;;;4.13;1.70;;;;;;;35.36;17.51;100267.97;5089362;28;20035;-37
2022/07/18 07:35:11;;;;;;;3.53;1.60;;;;;;;35.51;16.97;100258.84;5089470;28;20031;-37
2022/07/18 07:37:41;;;;;;;7.50;2.80;;;;;;;35.53;16.59;100269.53;5089478;28;20052;-37
2022/07/18 07:40:07;;;;;;;6.30;2.38;;;;;;;36.53;16.04;100263.38;5089738;28;20016;-35
2022/07/18 07:42:33;;;;;;;7.88;2.10;;;;;;;35.73;17.08;100262.13;5087911;28;20047;-36
2022/07/18 07:44:58;;;;;;;4.90;1.80;;;;;;;35.40;16.97;100258.59;5077169;28;20492;-37
2022/07/18 07:47:24;;;;;;;4.43;1.33;;;;;;;35.54;15.72;100254.56;5069072;28;20112;-37
2022/07/18 07:49:49;;;;;;;3.03;1.33;;;;;;;35.50;15.97;100261.97;5071841;28;20029;-37
2022/07/18 07:52:17;;;;;;;4.25;1.63;;;;;;;35.95;16.49;100260.63;5073410;28;20109;-36
2022/07/18 07:54:44;;;;;;;5.47;1.80;;;;;;;35.37;16.76;100262.06;5076520;28;20024;-36
2022/07/18 07:57:10;;;;;;;3.10;1.50;;;;;;;35.46;15.51;100253.59;5093307;28;20107;-36
2022/07/18 07:59:35;;;;;;;4.32;1.50;;;;;;;35.38;15.38;100251.81;5093239;28;20150;-37
2022/07/18 08:02:01;;;;;;;7.35;2.17;;;;;;;35.68;16.26;100254.91;5093617;28;20020;-37
2022/07/18 08:04:26;;;;;;;2.88;1.60;;;;;;;35.89;15.71;100264.81;5093655;28;20048;-37
2022/07/18 08:06:52;;;;;;;6.07;1.42;;;;;;;37.22;14.41;100265.41;5093465;28;20489;-38
2022/07/18 08:09:17;;;;;;;5.07;1.40;;;;;;;36.46;15.11;100259.69;5093306;28;20050;-36
2022/07/18 08:11:43;;;;;;;3.05;1.33;;;;;;;34.90;16.22;100262.88;5093200;28;20028;-36
2022/07/18 08:14:09;;;;;;;4.65;1.45;;;;;;;34.47;15.98;100259.72;5093112;28;20016;-37
2022/07/18 08:16:34;;;;;;;3.25;1.40;;;;;;;34.63;15.94;100261.72;5092602;28;20344;-37
2022/07/18 08:19:00;;;;;;;2.40;1.50;;;;;;;34.97;16.12;100265.00;5092541;28;20404;-37
2022/07/18 08:21:25;;;;;;;3.28;1.80;;;;;;;35.16;16.28;100244.94;5093127;28;20111;-37
2022/07/18 08:23:50;;;;;;;3.22;1.50;;;;;;;34.68;16.01;100252.41;5093165;28;20070;-37
2022/07/18 08:26:16;;;;;;;4.32;1.45;;;;;;;34.25;16.28;100250.06;5093182;28;20431;-37
2022/07/18 08:28:41;;;;;;;1.92;1.50;;;;;;;34.53;15.85;100234.63;5093125;28;20062;-37
2022/07/18 08:31:07;;;;;;;5.68;1.90;;;;;;;34.80;16.02;100255.09;5093157;28;20099;-37
2022/07/18 08:33:32;;;;;;;1.75;1.33;;;;;;;34.39;15.55;100254.38;5093151;28;20032;-37
2022/07/18 08:35:58;;;;;;;4.15;1.67;;;;;;;34.02;16.69;100255.28;5092819;28;20016;-37
2022/07/18 08:38:23;;;;;;;5.68;1.65;;;;;;;33.57;17.26;100263.75;5092732;28;20563;-36
2022/07/18 08:40:52;;;;;;;3.55;1.60;;;;;;;33.32;16.44;100263.75;5092216;28;20020;-36
2022/07/18 08:43:18;;;;;;;4.97;2.30;;;;;;;33.81;16.93;100254.66;5092571;28;20027;-36
2022/07/18 08:45:45;;;;;;;4.15;1.98;;;;;;;34.63;16.22;100256.19;5092492;28;20020;-36
2022/07/18 08:48:20;;;;;;;2.90;1.70;;;;;;;35.07;16.06;100253.41;5092407;28;20059;-37
2022/07/18 08:50:47;;;;;;;4.07;1.60;;;;;;;34.97;16.05;100256.72;5092072;28;20480;-37
2022/07/18 08:53:14;;;;;;;3.20;1.80;;;;;;;34.39;15.97;100257.94;5092156;28;20020;-37
2022/07/18 08:55:39;;;;;;;3.40;1.70;;;;;;;33.96;16.90;100255.88;5084633;28;20473;-37
2022/07/18 08:58:05;;;;;;;3.17;1.95;;;;;;;34.34;16.31;100252.66;5071955;28;20038;-36
2022/07/18 09:00:31;;;;;;;5.10;1.67;;;;;;;34.10;16.66;100267.34;5070728;28;20035;-36
2022/07/18 09:03:00;;;;;;;2.20;1.70;;;;;;;33.48;17.10;100258.34;5071609;28;20020;-37
2022/07/18 09:05:27;;;;;;;3.28;1.70;;;;;;;33.48;17.17;100259.16;5071784;28;20527;-36
2022/07/18 09:08:08;;;;;;;3.90;1.80;;;;;;;34.07;17.41;100265.28;5071798;28;20028;-37
2022/07/18 09:10:57;;;;;;;4.32;1.73;;;;;;;32.55;17.84;100264.25;5071251;28;20056;-37
2022/07/18 09:13:36;;;;;;;2.65;1.90;;;;;;;32.50;18.14;100264.44;5071152;28;20028;-37
2022/07/18 09:16:06;;;;;;;2.70;1.75;;;;;;;32.36;18.06;100259.25;5071647;28;20035;-37
2022/07/18 09:18:37;;;;;;;2.92;1.63;;;;;;;32.30;18.19;100258.66;5071653;28;20054;-37
2022/07/18 09:21:07;;;;;;;2.17;1.50;;;;;;;32.00;18.84;100248.84;5071622;28;20028;-36
2022/07/18 09:23:35;;;;;;;4.38;1.90;;;;;;;32.79;18.85;100266.31;5071139;28;20016;-36
2022/07/18 09:26:01;;;;;;;2.73;1.80;;;;;;;32.64;18.44;100258.69;5071197;28;20032;-37
2022/07/18 09:28:46;;;;;;;4.90;1.80;;;;;;;31.90;19.10;100267.34;5071227;28;20020;-37
2022/07/18 09:31:24;;;;;;;3.42;1.90;;;;;;;32.31;18.68;100260.28;5071403;28;20021;-37
2022/07/18 09:33:55;;;;;;;3.42;1.80;;;;;;;32.10;19.01;100262.22;5070925;28;20098;-36
2022/07/18 09:36:21;;;;;;;3.53;1.90;;;;;;;32.30;19.79;100247.63;5070983;28;20103;-36
2022/07/18 09:38:46;;;;;;;5.93;1.70;;;;;;;32.37;19.35;100257.28;5071182;28;20152;-37
2022/07/18 09:41:12;;;;;;;2.17;1.70;;;;;;;32.33;19.52;100249.72;5071292;28;20484;-37
2022/07/18 09:43:38;;;;;;;3.88;1.77;;;;;;;32.21;19.23;100251.59;5070582;28;20023;-36
2022/07/18 09:46:06;;;;;;;2.80;1.63;;;;;;;32.13;18.28;100245.84;5070893;28;20405;-38
2022/07/18 09:48:32;;;;;;;1.67;1.38;;;;;;;31.75;18.50;100248.69;5070916;28;20035;-36
2022/07/18 09:51:06;;;;;;;2.65;2.00;;;;;;;32.03;19.55;100245.47;5070791;28;20056;-37
2022/07/18 09:53:32;;;;;;;4.40;1.90;;;;;;;32.75;17.94;100254.38;5070640;28;20029;-37
2022/07/18 09:56:03;;;;;;;2.33;1.50;;;;;;;32.79;17.89;100246.22;5070383;28;20115;-37
2022/07/18 09:58:34;;;;;;;5.38;1.67;;;;;;;31.76;18.58;100251.13;5075515;28;20039;-36
2022/07/18 10:01:01;;;;;;;2.80;1.67;;;;;;;32.04;18.27;100238.78;5090940;28;20031;-37
2022/07/18 10:03:27;;;;;;;5.32;1.83;;;;;;;32.40;18.27;100220.81;5090958;28;20070;-38
2022/07/18 10:05:54;;;;;;;4.20;2.10;;;;;;;33.09;18.66;100233.84;5090155;28;20077;-38
2022/07/18 10:08:25;;;;;;;4.15;1.88;;;;;;;33.31;18.11;100237.31;5090684;28;20488;-37
2022/07/18 10:10:52;;;;;;;2.83;1.85;;;;;;;33.81;17.73;100221.53;5090893;28;20512;-37
2022/07/18 10:13:20;;;;;;;7.63;6.38;;;;;;;34.09;17.24;100221.56;5090242;28;20043;-37
2022/07/18 10:15:47;;;;;;;6.10;4.43;;;;;;;33.95;17.21;100223.91;5090629;28;20028;-36
2022/07/18 10:18:15;;;;;;;12.40;8.88;;;;;;;33.74;18.19;100221.31;5090743;28;20277;-36
2022/07/18 10:20:54;;;;;;;;;;;;;;;33.95;18.41;100218.38;5090938;28;20388;-38
2022/07/18 10:23:25;;;;;;;4.05;3.20;;;;;;;34.21;17.61;100221.53;5090389;28;20299;-37
2022/07/18 10:26:09;;;;;;;4.03;2.65;;;;;;;33.68;18.83;100221.56;5090624;28;20074;-37
2022/07/18 10:28:35;;;;;;;2.83;2.20;;;;;;;33.84;18.20;100218.88;5090391;28;20020;-37
2022/07/18 10:31:15;;;;;;;4.57;1.95;;;;;;;33.40;19.71;100218.72;5090712;28;20089;-37
2022/07/18 10:33:47;;;;;;;2.50;2.10;;;;;;;32.39;20.17;100214.53;5090323;28;20042;-37
2022/07/18 10:36:23;;;;;;;4.43;2.10;;;;;;;32.71;20.30;100209.31;5090683;28;20161;-37
2022/07/18 10:39:15;;;;;;;3.22;2.20;;;;;;;32.78;20.51;100189.50;5090377;28;20076;-37
2022/07/18 10:41:43;;;;;;;5.32;2.40;;;;;;;33.48;20.05;100200.44;5090316;28;20052;-37
2022/07/18 10:44:30;;;;;;;2.95;2.30;;;;;;;33.79;19.98;100207.28;5090174;28;20095;-38
2022/07/18 10:47:05;;;;;;;3.63;2.20;;;;;;;34.09;19.92;100203.03;5089912;28;20403;-37
2022/07/18 10:49:45;;;;;;;4.75;2.15;;;;;;;34.22;19.17;100203.03;5090613;28;20110;-37
2022/07/18 10:52:26;;;;;;;4.78;2.28;;;;;;;34.14;20.44;100192.88;5090361;28;20040;-37
2022/07/18 10:55:01;;;;;;;3.05;2.15;;;;;;;33.52;19.43;100182.03;5090119;28;20036;-37
2022/07/18 10:57:27;;;;;;;6.10;2.53;;;;;;;32.93;20.79;100203.41;5090108;28;20430;-37
2022/07/18 11:00:26;;;;;;;4.50;2.38;;;;;;;32.37;20.96;100200.28;5089720;28;20035;-37
2022/07/18 11:03:09;;;;;;;3.25;2.30;;;;;;;32.52;20.78;100196.09;5089649;28;20108;-37
2022/07/18 11:05:41;;;;;;;4.45;2.30;;;;;;;33.08;19.94;100190.88;5090114;28;20145;-37
2022/07/18 11:08:08;;;;;;;3.90;2.15;;;;;;;32.45;20.49;100196.63;5090005;28;20024;-36
2022/07/18 11:10:44;;;;;;;3.67;2.08;;;;;;;32.17;20.59;100187.38;5089712;28;20446;-36
2022/07/18 11:13:31;;;;;;;3.60;2.20;;;;;;;32.37;19.97;100191.19;5090266;28;20108;-36
2022/07/18 11:16:09;;;;;;;2.38;2.15;;;;;;;32.54;20.70;100177.28;5090361;28;20028;-37
2022/07/18 11:18:44;;;;;;;3.22;2.25;;;;;;;32.79;20.66;100177.34;5090055;28;20039;-37
2022/07/18 11:21:17;;;;;;;4.45;2.30;;;;;;;33.13;20.83;100169.78;5089793;28;20035;-37
2022/07/18 11:23:46;;;;;;;3.22;2.20;;;;;;;33.42;20.45;100171.47;5090194;28;20146;-37
2022/07/18 11:26:14;;;;;;;3.55;2.22;;;;;;;33.94;20.69;100167.09;5094286;28;20052;-37
2022/07/18 11:28:41;;;;;;;6.38;2.53;;;;;;;34.33;20.10;100164.63;5094437;28;20035;-36
2022/07/18 11:31:09;;;;;;;3.35;2.50;;;;;;;33.91;19.77;100165.03;5094253;28;20020;-38